Redding, CA (96001)

11:29 PM PST on December 05, 2016 (GMT -0800)
Dartmouth Drive | | Change Station
Active Advisory: Freeze Watch

Elev 768 ft 40.56 °N, 122.43 °W | Updated 24 seconds ago

Clear
Clear
40.2 °F
Feels Like 40 °F
N
0.0
Wind Variable Wind from West

Today
High -- | Low -- °F
--% Chance of Precip.
Yesterday
High -- | Low -- °F
Precip. -- in
Pressure 30.06 in
Visibility 10.0 miles
Clouds Clear
Windchill 40 °F
Dew Point 30 °F
Humidity 69%
Rainfall 0.00 in
Snow Depth Not available.
7:18 AM 4:42 PM
Waxing Crescent, 39% visible
METAR KRDD 060653Z AUTO 00000KT 10SM CLR 02/M01 A3005 RMK AO2 SLP177 T00171011
Pressure 30.06 in
Visibility 10.0 miles
Clouds Clear
Windchill 40 °F
Dew Point 30 °F
Humidity 69%
Rainfall 0.00 in
Snow Depth Not available.
7:18 AM 4:42 PM
Waxing Crescent, 39% visible
METAR KRDD 060653Z AUTO 00000KT 10SM CLR 02/M01 A3005 RMK AO2 SLP177 T00171011

10-Day Weather Forecast

Almanac

Astronomy

Dec. 05, 2016 Rise Set
Actual Time
Civil Twilight
Nautical Twilight
Astronomical Twilight
Moon
Length of Visible Light
Length of Day
Tomorrow will be .
, % of the Moon is Illuminated

Today's Extremes

State Highs State Lows

Community

WunderPhotos

Upload Photos

1,955,930 photos uploaded!

WunderBlog® & News

Nearby

Air Quality

  Air Quality AQ Index Pollutant
Not available.

Snow Depth

Station Depth Elevation

Earthquake Activity

City Distance Mag. Time & Date
Minimum magnitude displayed is 2.5.

Coastal Water Temperatures

Place Temperature

Stations

Nearby Weather Stations

Station Location Temp. Windchill Dew Point Humidity Wind Precip. Elev Updated Type
                   

Watches & Warnings

Freeze Watch
Issued: 2:34 PM PST Dec. 5, 2016 – National Weather Service

... Freeze watch in effect from late Tuesday night through
Wednesday morning...

The National Weather Service in Sacramento has issued a freeze
watch below 2000 feet elevation, which is in effect from late
Tuesday night through Wednesday morning.

* Temperature... 28 to 32 degrees possible late Tuesday night into
Wednesday morning.

* Impacts... temperatures this cold may damage plants and pipes if
left unprotected.

Precautionary/preparedness actions...

A freeze watch means sub-freezing temperatures are possible.
These conditions could kill crops and other sensitive vegetation.
Take precautions to protect exposed pipes, pets, and livestock.


Interact with US via social media
www.Facebook.Com/NWS.Sacramento
www.Twitter.Com/nwssacramento